Аэропорт: Внуково. Москва

ICAO: UUWW

METAR:
2020-08-13 11:30:00
UUWW 131130Z 34006MPS 9999 -SHRA BKN009 OVC020CB 14/12 Q1012 R01/290050 NOSIG
METAR:
2020-08-13 07:52:00
TAF UUWW 130752Z 1309/1409 33007MPS 9000 BKN008 TX14/1312Z TN11/1401Z TEMPO 1309/1318 34009G14MPS -SHRA BKN004 BKN016CB TEMPO 1318/1406 FEW004